sensor_id;sensor_type;location;lat;lon;timestamp;P1;durP1;ratioP1;P2;durP2;ratioP2
55090;SDS011;40985;53.180;5.800;2023-06-19T00:00:03;6.15;;;5.65;;
55090;SDS011;40985;53.180;5.800;2023-06-19T00:02:32;6.30;;;5.70;;
55090;SDS011;40985;53.180;5.800;2023-06-19T00:04:58;5.68;;;5.18;;
55090;SDS011;40985;53.180;5.800;2023-06-19T00:07:24;5.30;;;4.90;;
55090;SDS011;40985;53.180;5.800;2023-06-19T00:09:49;5.93;;;5.38;;
55090;SDS011;40985;53.180;5.800;2023-06-19T00:12:15;5.93;;;5.30;;
55090;SDS011;40985;53.180;5.800;2023-06-19T00:14:40;5.75;;;5.32;;
55090;SDS011;40985;53.180;5.800;2023-06-19T00:17:06;5.97;;;5.35;;
55090;SDS011;40985;53.180;5.800;2023-06-19T00:19:32;5.68;;;5.18;;
55090;SDS011;40985;53.180;5.800;2023-06-19T00:22:02;6.18;;;5.68;;
55090;SDS011;40985;53.180;5.800;2023-06-19T00:24:28;5.65;;;5.15;;
55090;SDS011;40985;53.180;5.800;2023-06-19T00:26:54;5.60;;;5.20;;
55090;SDS011;40985;53.180;5.800;2023-06-19T00:29:20;6.07;;;5.47;;
55090;SDS011;40985;53.180;5.800;2023-06-19T00:31:45;6.20;;;5.70;;
55090;SDS011;40985;53.180;5.800;2023-06-19T00:34:11;6.13;;;5.72;;
55090;SDS011;40985;53.180;5.800;2023-06-19T00:36:37;8.80;;;5.20;;
55090;SDS011;40985;53.180;5.800;2023-06-19T00:39:05;5.93;;;5.50;;
55090;SDS011;40985;53.180;5.800;2023-06-19T00:41:33;5.30;;;4.90;;
55090;SDS011;40985;53.180;5.800;2023-06-19T00:44:00;5.72;;;5.22;;
55090;SDS011;40985;53.180;5.800;2023-06-19T00:46:26;5.55;;;5.07;;
55090;SDS011;40985;53.180;5.800;2023-06-19T00:48:51;5.22;;;4.82;;
55090;SDS011;40985;53.180;5.800;2023-06-19T00:51:17;5.03;;;4.22;;
55090;SDS011;40985;53.180;5.800;2023-06-19T00:53:43;4.82;;;4.43;;
55090;SDS011;40985;53.180;5.800;2023-06-19T00:56:09;5.15;;;4.72;;
55090;SDS011;40985;53.180;5.800;2023-06-19T00:58:34;4.43;;;4.13;;
55090;SDS011;40985;53.180;5.800;2023-06-19T01:01:00;5.40;;;4.97;;
55090;SDS011;40985;53.180;5.800;2023-06-19T01:03:27;4.65;;;4.40;;
55090;SDS011;40985;53.180;5.800;2023-06-19T01:05:53;6.03;;;5.32;;
55090;SDS011;40985;53.180;5.800;2023-06-19T01:11:05;6.43;;;4.60;;
55090;SDS011;40985;53.180;5.800;2023-06-19T01:16:09;4.95;;;4.55;;
55090;SDS011;40985;53.180;5.800;2023-06-19T01:18:36;5.72;;;4.57;;
55090;SDS011;40985;53.180;5.800;2023-06-19T01:21:12;6.20;;;4.13;;
55090;SDS011;40985;53.180;5.800;2023-06-19T01:23:38;4.50;;;4.18;;
55090;SDS011;40985;53.180;5.800;2023-06-19T01:26:05;4.75;;;4.13;;
55090;SDS011;40985;53.180;5.800;2023-06-19T01:28:32;4.70;;;4.30;;
55090;SDS011;40985;53.180;5.800;2023-06-19T01:31:00;6.80;;;4.15;;
55090;SDS011;40985;53.180;5.800;2023-06-19T01:33:27;4.43;;;4.03;;
55090;SDS011;40985;53.180;5.800;2023-06-19T01:35:56;4.88;;;4.47;;
55090;SDS011;40985;53.180;5.800;2023-06-19T01:38:23;4.93;;;4.60;;
55090;SDS011;40985;53.180;5.800;2023-06-19T01:40:54;5.10;;;4.60;;
55090;SDS011;40985;53.180;5.800;2023-06-19T01:43:21;4.30;;;3.90;;
55090;SDS011;40985;53.180;5.800;2023-06-19T01:45:48;4.75;;;4.18;;
55090;SDS011;40985;53.180;5.800;2023-06-19T01:48:14;4.10;;;3.83;;
55090;SDS011;40985;53.180;5.800;2023-06-19T01:50:41;5.05;;;4.65;;
55090;SDS011;40985;53.180;5.800;2023-06-19T01:53:12;4.85;;;4.40;;
55090;SDS011;40985;53.180;5.800;2023-06-19T01:55:38;5.18;;;4.85;;
55090;SDS011;40985;53.180;5.800;2023-06-19T01:58:04;4.72;;;4.43;;
55090;SDS011;40985;53.180;5.800;2023-06-19T02:00:29;7.30;;;4.40;;
55090;SDS011;40985;53.180;5.800;2023-06-19T02:02:57;4.30;;;3.90;;
55090;SDS011;40985;53.180;5.800;2023-06-19T02:05:23;5.18;;;4.20;;
55090;SDS011;40985;53.180;5.800;2023-06-19T02:07:48;7.78;;;5.07;;
55090;SDS011;40985;53.180;5.800;2023-06-19T02:10:14;4.57;;;4.10;;
55090;SDS011;40985;53.180;5.800;2023-06-19T02:12:40;5.40;;;4.90;;
55090;SDS011;40985;53.180;5.800;2023-06-19T02:15:05;5.13;;;4.72;;
55090;SDS011;40985;53.180;5.800;2023-06-19T02:17:32;5.03;;;4.60;;
55090;SDS011;40985;53.180;5.800;2023-06-19T02:19:58;4.95;;;4.50;;
55090;SDS011;40985;53.180;5.800;2023-06-19T02:22:23;5.47;;;4.30;;
55090;SDS011;40985;53.180;5.800;2023-06-19T02:24:49;4.75;;;4.45;;
55090;SDS011;40985;53.180;5.800;2023-06-19T02:27:15;5.43;;;4.57;;
55090;SDS011;40985;53.180;5.800;2023-06-19T02:29:41;4.68;;;4.28;;
55090;SDS011;40985;53.180;5.800;2023-06-19T02:32:06;6.43;;;4.57;;
55090;SDS011;40985;53.180;5.800;2023-06-19T02:34:32;4.50;;;4.20;;
55090;SDS011;40985;53.180;5.800;2023-06-19T02:36:58;5.60;;;4.32;;
55090;SDS011;40985;53.180;5.800;2023-06-19T02:39:24;5.63;;;5.10;;
55090;SDS011;40985;53.180;5.800;2023-06-19T02:41:49;5.85;;;4.90;;
55090;SDS011;40985;53.180;5.800;2023-06-19T02:44:15;5.38;;;4.70;;
55090;SDS011;40985;53.180;5.800;2023-06-19T02:46:41;6.13;;;5.57;;
55090;SDS011;40985;53.180;5.800;2023-06-19T02:49:06;5.25;;;4.75;;
55090;SDS011;40985;53.180;5.800;2023-06-19T02:51:32;6.47;;;5.50;;
55090;SDS011;40985;53.180;5.800;2023-06-19T02:53:58;6.10;;;5.10;;
55090;SDS011;40985;53.180;5.800;2023-06-19T02:56:24;5.85;;;5.35;;
55090;SDS011;40985;53.180;5.800;2023-06-19T02:58:51;4.68;;;4.38;;
55090;SDS011;40985;53.180;5.800;2023-06-19T03:01:17;5.40;;;5.03;;
55090;SDS011;40985;53.180;5.800;2023-06-19T03:03:43;5.72;;;5.28;;
55090;SDS011;40985;53.180;5.800;2023-06-19T03:06:11;5.32;;;4.88;;
55090;SDS011;40985;53.180;5.800;2023-06-19T03:08:38;5.20;;;4.78;;
55090;SDS011;40985;53.180;5.800;2023-06-19T03:11:04;5.53;;;4.63;;
55090;SDS011;40985;53.180;5.800;2023-06-19T03:16:14;5.28;;;4.85;;
55090;SDS011;40985;53.180;5.800;2023-06-19T03:18:40;5.25;;;4.85;;
55090;SDS011;40985;53.180;5.800;2023-06-19T03:21:07;5.88;;;4.72;;
55090;SDS011;40985;53.180;5.800;2023-06-19T03:23:33;5.32;;;4.82;;
55090;SDS011;40985;53.180;5.800;2023-06-19T03:25:58;6.07;;;5.57;;
55090;SDS011;40985;53.180;5.800;2023-06-19T03:28:24;6.38;;;5.63;;
55090;SDS011;40985;53.180;5.800;2023-06-19T03:30:50;5.80;;;5.32;;
55090;SDS011;40985;53.180;5.800;2023-06-19T03:33:15;6.10;;;5.43;;
55090;SDS011;40985;53.180;5.800;2023-06-19T03:35:41;7.03;;;5.28;;
55090;SDS011;40985;53.180;5.800;2023-06-19T03:38:07;6.50;;;5.97;;
55090;SDS011;40985;53.180;5.800;2023-06-19T03:40:33;6.22;;;5.72;;
55090;SDS011;40985;53.180;5.800;2023-06-19T03:42:59;5.57;;;5.07;;
55090;SDS011;40985;53.180;5.800;2023-06-19T03:45:25;5.43;;;5.03;;
55090;SDS011;40985;53.180;5.800;2023-06-19T03:47:50;4.35;;;4.05;;
55090;SDS011;40985;53.180;5.800;2023-06-19T03:50:16;4.45;;;3.80;;
55090;SDS011;40985;53.180;5.800;2023-06-19T03:52:42;3.60;;;2.10;;
55090;SDS011;40985;53.180;5.800;2023-06-19T03:55:07;4.05;;;2.17;;
55090;SDS011;40985;53.180;5.800;2023-06-19T03:57:33;2.25;;;1.42;;
55090;SDS011;40985;53.180;5.800;2023-06-19T03:59:59;2.42;;;1.13;;
55090;SDS011;40985;53.180;5.800;2023-06-19T04:02:24;3.45;;;1.23;;
55090;SDS011;40985;53.180;5.800;2023-06-19T04:04:51;1.02;;;0.93;;
55090;SDS011;40985;53.180;5.800;2023-06-19T04:07:16;1.17;;;0.88;;
55090;SDS011;40985;53.180;5.800;2023-06-19T04:09:42;1.50;;;0.80;;
55090;SDS011;40985;53.180;5.800;2023-06-19T04:12:08;2.45;;;0.60;;
55090;SDS011;40985;53.180;5.800;2023-06-19T04:14:34;2.08;;;0.88;;
55090;SDS011;40985;53.180;5.800;2023-06-19T04:16:59;1.52;;;0.95;;
55090;SDS011;40985;53.180;5.800;2023-06-19T04:19:25;1.58;;;0.70;;
55090;SDS011;40985;53.180;5.800;2023-06-19T04:21:51;1.10;;;0.80;;
55090;SDS011;40985;53.180;5.800;2023-06-19T04:24:16;1.67;;;1.00;;
55090;SDS011;40985;53.180;5.800;2023-06-19T04:26:42;2.22;;;1.08;;
55090;SDS011;40985;53.180;5.800;2023-06-19T04:29:07;1.52;;;1.10;;
55090;SDS011;40985;53.180;5.800;2023-06-19T04:31:33;1.10;;;1.00;;
55090;SDS011;40985;53.180;5.800;2023-06-19T04:34:05;2.33;;;1.10;;
55090;SDS011;40985;53.180;5.800;2023-06-19T04:36:31;3.42;;;1.48;;
55090;SDS011;40985;53.180;5.800;2023-06-19T04:38:57;3.72;;;1.73;;
55090;SDS011;40985;53.180;5.800;2023-06-19T04:41:26;3.35;;;2.00;;
55090;SDS011;40985;53.180;5.800;2023-06-19T04:43:51;1.98;;;1.80;;
55090;SDS011;40985;53.180;5.800;2023-06-19T04:46:17;1.83;;;1.73;;
55090;SDS011;40985;53.180;5.800;2023-06-19T04:48:45;3.20;;;2.40;;
55090;SDS011;40985;53.180;5.800;2023-06-19T04:51:16;2.72;;;2.53;;
55090;SDS011;40985;53.180;5.800;2023-06-19T04:53:46;2.92;;;2.83;;
55090;SDS011;40985;53.180;5.800;2023-06-19T04:56:12;2.63;;;2.40;;
55090;SDS011;40985;53.180;5.800;2023-06-19T04:58:38;3.88;;;2.47;;
55090;SDS011;40985;53.180;5.800;2023-06-19T05:01:11;3.33;;;3.00;;
55090;SDS011;40985;53.180;5.800;2023-06-19T05:03:40;3.75;;;3.47;;
55090;SDS011;40985;53.180;5.800;2023-06-19T05:06:06;3.58;;;3.25;;
55090;SDS011;40985;53.180;5.800;2023-06-19T05:08:32;2.90;;;2.67;;
55090;SDS011;40985;53.180;5.800;2023-06-19T05:10:58;3.70;;;3.50;;
55090;SDS011;40985;53.180;5.800;2023-06-19T05:13:24;8.50;;;5.32;;
55090;SDS011;40985;53.180;5.800;2023-06-19T05:15:50;8.07;;;5.85;;
55090;SDS011;40985;53.180;5.800;2023-06-19T05:18:16;11.27;;;6.80;;
55090;SDS011;40985;53.180;5.800;2023-06-19T05:20:41;6.90;;;6.30;;
55090;SDS011;40985;53.180;5.800;2023-06-19T05:23:07;8.55;;;7.68;;
55090;SDS011;40985;53.180;5.800;2023-06-19T05:25:33;8.05;;;7.38;;
55090;SDS011;40985;53.180;5.800;2023-06-19T05:27:59;8.57;;;7.75;;
55090;SDS011;40985;53.180;5.800;2023-06-19T05:30:24;10.05;;;9.07;;
55090;SDS011;40985;53.180;5.800;2023-06-19T05:32:50;17.25;;;12.07;;
55090;SDS011;40985;53.180;5.800;2023-06-19T05:35:15;17.00;;;15.30;;
55090;SDS011;40985;53.180;5.800;2023-06-19T05:37:41;19.17;;;16.58;;
55090;SDS011;40985;53.180;5.800;2023-06-19T05:40:09;19.85;;;17.98;;
55090;SDS011;40985;53.180;5.800;2023-06-19T05:42:35;23.02;;;20.73;;
55090;SDS011;40985;53.180;5.800;2023-06-19T05:45:01;26.15;;;23.70;;
55090;SDS011;40985;53.180;5.800;2023-06-19T05:47:28;26.67;;;24.17;;
55090;SDS011;40985;53.180;5.800;2023-06-19T05:49:55;26.05;;;23.52;;
55090;SDS011;40985;53.180;5.800;2023-06-19T05:52:23;28.33;;;25.67;;
55090;SDS011;40985;53.180;5.800;2023-06-19T05:54:49;27.95;;;25.35;;
55090;SDS011;40985;53.180;5.800;2023-06-19T05:57:15;28.50;;;25.85;;
55090;SDS011;40985;53.180;5.800;2023-06-19T05:59:44;26.88;;;24.02;;
55090;SDS011;40985;53.180;5.800;2023-06-19T06:02:09;25.77;;;23.25;;
55090;SDS011;40985;53.180;5.800;2023-06-19T06:04:35;25.60;;;22.90;;
55090;SDS011;40985;53.180;5.800;2023-06-19T06:07:01;24.95;;;21.77;;
55090;SDS011;40985;53.180;5.800;2023-06-19T06:09:27;27.70;;;24.77;;
55090;SDS011;40985;53.180;5.800;2023-06-19T06:11:52;32.85;;;24.70;;
55090;SDS011;40985;53.180;5.800;2023-06-19T06:14:18;26.58;;;24.00;;
55090;SDS011;40985;53.180;5.800;2023-06-19T06:16:44;25.45;;;23.02;;
55090;SDS011;40985;53.180;5.800;2023-06-19T06:19:09;27.55;;;24.27;;
55090;SDS011;40985;53.180;5.800;2023-06-19T06:21:35;27.80;;;24.77;;
55090;SDS011;40985;53.180;5.800;2023-06-19T06:24:01;29.38;;;24.23;;
55090;SDS011;40985;53.180;5.800;2023-06-19T06:26:27;28.48;;;25.38;;
55090;SDS011;40985;53.180;5.800;2023-06-19T06:28:53;28.13;;;25.17;;
55090;SDS011;40985;53.180;5.800;2023-06-19T06:31:21;27.98;;;25.00;;
55090;SDS011;40985;53.180;5.800;2023-06-19T06:33:48;29.55;;;26.42;;
55090;SDS011;40985;53.180;5.800;2023-06-19T06:36:16;34.28;;;27.48;;
55090;SDS011;40985;53.180;5.800;2023-06-19T06:38:42;34.22;;;27.50;;
55090;SDS011;40985;53.180;5.800;2023-06-19T06:41:08;32.08;;;28.25;;
55090;SDS011;40985;53.180;5.800;2023-06-19T06:43:34;32.28;;;27.48;;
55090;SDS011;40985;53.180;5.800;2023-06-19T06:46:00;33.20;;;27.20;;
55090;SDS011;40985;53.180;5.800;2023-06-19T06:48:25;33.15;;;28.30;;
55090;SDS011;40985;53.180;5.800;2023-06-19T06:50:51;31.40;;;24.90;;
55090;SDS011;40985;53.180;5.800;2023-06-19T06:53:25;32.97;;;24.67;;
55090;SDS011;40985;53.180;5.800;2023-06-19T06:55:53;32.53;;;24.20;;
55090;SDS011;40985;53.180;5.800;2023-06-19T06:58:18;30.63;;;23.52;;
55090;SDS011;40985;53.180;5.800;2023-06-19T07:00:44;34.67;;;24.58;;
55090;SDS011;40985;53.180;5.800;2023-06-19T07:03:10;31.45;;;23.15;;
55090;SDS011;40985;53.180;5.800;2023-06-19T07:05:36;32.88;;;24.73;;
55090;SDS011;40985;53.180;5.800;2023-06-19T07:08:02;33.95;;;25.40;;
55090;SDS011;40985;53.180;5.800;2023-06-19T07:10:29;33.50;;;25.45;;
55090;SDS011;40985;53.180;5.800;2023-06-19T07:12:55;38.22;;;24.48;;
55090;SDS011;40985;53.180;5.800;2023-06-19T07:15:21;31.60;;;23.80;;
55090;SDS011;40985;53.180;5.800;2023-06-19T07:17:47;33.65;;;23.95;;
55090;SDS011;40985;53.180;5.800;2023-06-19T07:20:13;29.25;;;21.90;;
55090;SDS011;40985;53.180;5.800;2023-06-19T07:22:39;33.00;;;23.02;;
55090;SDS011;40985;53.180;5.800;2023-06-19T07:25:06;34.97;;;22.77;;
55090;SDS011;40985;53.180;5.800;2023-06-19T07:27:33;32.03;;;23.88;;
55090;SDS011;40985;53.180;5.800;2023-06-19T07:29:58;34.05;;;23.90;;
55090;SDS011;40985;53.180;5.800;2023-06-19T07:32:24;34.75;;;22.58;;
55090;SDS011;40985;53.180;5.800;2023-06-19T07:34:50;33.17;;;23.33;;
55090;SDS011;40985;53.180;5.800;2023-06-19T07:37:16;31.75;;;22.55;;
55090;SDS011;40985;53.180;5.800;2023-06-19T07:39:48;32.10;;;23.55;;
55090;SDS011;40985;53.180;5.800;2023-06-19T07:42:15;33.22;;;24.50;;
55090;SDS011;40985;53.180;5.800;2023-06-19T07:44:43;32.75;;;24.00;;
55090;SDS011;40985;53.180;5.800;2023-06-19T07:47:09;29.48;;;22.88;;
55090;SDS011;40985;53.180;5.800;2023-06-19T07:49:35;25.15;;;19.83;;
55090;SDS011;40985;53.180;5.800;2023-06-19T07:52:01;25.40;;;20.52;;
55090;SDS011;40985;53.180;5.800;2023-06-19T07:54:28;24.83;;;20.40;;
55090;SDS011;40985;53.180;5.800;2023-06-19T07:56:53;22.30;;;19.90;;
55090;SDS011;40985;53.180;5.800;2023-06-19T07:59:19;23.58;;;17.95;;
55090;SDS011;40985;53.180;5.800;2023-06-19T08:01:45;20.30;;;16.33;;
55090;SDS011;40985;53.180;5.800;2023-06-19T08:04:10;18.17;;;16.00;;
55090;SDS011;40985;53.180;5.800;2023-06-19T08:06:36;18.67;;;16.42;;
55090;SDS011;40985;53.180;5.800;2023-06-19T08:09:02;19.35;;;17.35;;
55090;SDS011;40985;53.180;5.800;2023-06-19T08:11:28;17.88;;;15.95;;
55090;SDS011;40985;53.180;5.800;2023-06-19T08:13:54;16.88;;;15.15;;
55090;SDS011;40985;53.180;5.800;2023-06-19T08:16:20;19.73;;;15.68;;
55090;SDS011;40985;53.180;5.800;2023-06-19T08:18:46;16.08;;;14.48;;
55090;SDS011;40985;53.180;5.800;2023-06-19T08:21:12;18.10;;;16.17;;
55090;SDS011;40985;53.180;5.800;2023-06-19T08:23:38;18.23;;;16.30;;
55090;SDS011;40985;53.180;5.800;2023-06-19T08:26:05;19.45;;;16.15;;
55090;SDS011;40985;53.180;5.800;2023-06-19T08:28:33;17.33;;;14.90;;
55090;SDS011;40985;53.180;5.800;2023-06-19T08:30:59;18.50;;;16.55;;
55090;SDS011;40985;53.180;5.800;2023-06-19T08:33:25;17.63;;;15.48;;
55090;SDS011;40985;53.180;5.800;2023-06-19T08:35:50;18.98;;;16.70;;
55090;SDS011;40985;53.180;5.800;2023-06-19T08:38:16;20.98;;;16.58;;
55090;SDS011;40985;53.180;5.800;2023-06-19T08:40:42;19.48;;;16.52;;
55090;SDS011;40985;53.180;5.800;2023-06-19T08:43:09;17.50;;;15.55;;
55090;SDS011;40985;53.180;5.800;2023-06-19T08:45:35;19.35;;;15.57;;
55090;SDS011;40985;53.180;5.800;2023-06-19T08:48:01;17.95;;;15.38;;
55090;SDS011;40985;53.180;5.800;2023-06-19T08:50:29;15.98;;;14.45;;
55090;SDS011;40985;53.180;5.800;2023-06-19T08:52:55;22.17;;;15.40;;
55090;SDS011;40985;53.180;5.800;2023-06-19T08:55:22;17.13;;;13.93;;
55090;SDS011;40985;53.180;5.800;2023-06-19T08:57:48;20.60;;;14.48;;
55090;SDS011;40985;53.180;5.800;2023-06-19T09:00:28;17.17;;;14.88;;
55090;SDS011;40985;53.180;5.800;2023-06-19T09:03:01;17.85;;;14.15;;
55090;SDS011;40985;53.180;5.800;2023-06-19T09:05:28;14.57;;;13.07;;
55090;SDS011;40985;53.180;5.800;2023-06-19T09:07:55;15.48;;;12.73;;
55090;SDS011;40985;53.180;5.800;2023-06-19T09:10:27;18.02;;;13.20;;
55090;SDS011;40985;53.180;5.800;2023-06-19T09:12:59;17.50;;;13.68;;
55090;SDS011;40985;53.180;5.800;2023-06-19T09:15:27;17.90;;;12.63;;
55090;SDS011;40985;53.180;5.800;2023-06-19T09:18:08;15.35;;;12.90;;
55090;SDS011;40985;53.180;5.800;2023-06-19T09:20:36;16.30;;;12.52;;
55090;SDS011;40985;53.180;5.800;2023-06-19T09:23:09;19.15;;;12.73;;
55090;SDS011;40985;53.180;5.800;2023-06-19T09:28:24;14.55;;;12.88;;
55090;SDS011;40985;53.180;5.800;2023-06-19T09:30:57;15.20;;;11.90;;
55090;SDS011;40985;53.180;5.800;2023-06-19T09:33:27;18.13;;;13.23;;
55090;SDS011;40985;53.180;5.800;2023-06-19T09:35:54;17.52;;;14.23;;
55090;SDS011;40985;53.180;5.800;2023-06-19T09:38:23;16.27;;;13.23;;
55090;SDS011;40985;53.180;5.800;2023-06-19T09:40:55;17.40;;;12.93;;
55090;SDS011;40985;53.180;5.800;2023-06-19T09:43:25;15.70;;;12.35;;
55090;SDS011;40985;53.180;5.800;2023-06-19T09:46:06;14.52;;;12.80;;
55090;SDS011;40985;53.180;5.800;2023-06-19T09:48:33;19.20;;;14.65;;
55090;SDS011;40985;53.180;5.800;2023-06-19T09:51:07;17.77;;;13.65;;
55090;SDS011;40985;53.180;5.800;2023-06-19T09:53:40;19.88;;;15.20;;
55090;SDS011;40985;53.180;5.800;2023-06-19T09:56:13;23.38;;;15.10;;
55090;SDS011;40985;53.180;5.800;2023-06-19T09:58:40;16.83;;;14.95;;
55090;SDS011;40985;53.180;5.800;2023-06-19T10:01:08;16.63;;;14.80;;
55090;SDS011;40985;53.180;5.800;2023-06-19T10:03:34;17.70;;;15.32;;
55090;SDS011;40985;53.180;5.800;2023-06-19T10:06:01;19.23;;;13.75;;
55090;SDS011;40985;53.180;5.800;2023-06-19T10:08:32;16.77;;;13.88;;
55090;SDS011;40985;53.180;5.800;2023-06-19T10:11:04;17.88;;;14.85;;
55090;SDS011;40985;53.180;5.800;2023-06-19T10:13:34;16.00;;;14.30;;
55090;SDS011;40985;53.180;5.800;2023-06-19T10:16:01;22.25;;;15.98;;
55090;SDS011;40985;53.180;5.800;2023-06-19T10:18:27;18.58;;;14.13;;
55090;SDS011;40985;53.180;5.800;2023-06-19T10:20:53;18.33;;;12.85;;
55090;SDS011;40985;53.180;5.800;2023-06-19T10:23:24;24.33;;;16.30;;
55090;SDS011;40985;53.180;5.800;2023-06-19T10:28:30;15.90;;;12.77;;
55090;SDS011;40985;53.180;5.800;2023-06-19T10:31:03;15.02;;;12.57;;
55090;SDS011;40985;53.180;5.800;2023-06-19T10:33:31;15.88;;;14.07;;
55090;SDS011;40985;53.180;5.800;2023-06-19T10:35:58;19.02;;;15.40;;
55090;SDS011;40985;53.180;5.800;2023-06-19T10:38:44;22.13;;;17.35;;
55090;SDS011;40985;53.180;5.800;2023-06-19T10:41:21;16.10;;;14.43;;
55090;SDS011;40985;53.180;5.800;2023-06-19T10:46:29;23.13;;;17.30;;
55090;SDS011;40985;53.180;5.800;2023-06-19T10:48:57;23.92;;;17.67;;
55090;SDS011;40985;53.180;5.800;2023-06-19T10:51:26;21.55;;;17.42;;
55090;SDS011;40985;53.180;5.800;2023-06-19T10:53:53;23.50;;;20.02;;
55090;SDS011;40985;53.180;5.800;2023-06-19T10:56:20;24.55;;;20.42;;
55090;SDS011;40985;53.180;5.800;2023-06-19T10:58:47;22.20;;;19.48;;
55090;SDS011;40985;53.180;5.800;2023-06-19T11:01:12;19.42;;;15.55;;
55090;SDS011;40985;53.180;5.800;2023-06-19T11:03:38;18.60;;;15.95;;
55090;SDS011;40985;53.180;5.800;2023-06-19T11:06:04;18.65;;;16.65;;
55090;SDS011;40985;53.180;5.800;2023-06-19T11:08:30;18.30;;;16.38;;
55090;SDS011;40985;53.180;5.800;2023-06-19T11:10:55;17.85;;;15.95;;
55090;SDS011;40985;53.180;5.800;2023-06-19T11:13:21;17.52;;;15.77;;
55090;SDS011;40985;53.180;5.800;2023-06-19T11:15:47;18.23;;;16.30;;
55090;SDS011;40985;53.180;5.800;2023-06-19T11:18:17;15.95;;;14.35;;
55090;SDS011;40985;53.180;5.800;2023-06-19T11:20:44;17.48;;;14.65;;
55090;SDS011;40985;53.180;5.800;2023-06-19T11:23:11;15.48;;;13.98;;
55090;SDS011;40985;53.180;5.800;2023-06-19T11:25:38;16.55;;;12.02;;
55090;SDS011;40985;53.180;5.800;2023-06-19T11:28:05;16.98;;;12.32;;
55090;SDS011;40985;53.180;5.800;2023-06-19T11:30:39;14.85;;;11.55;;
55090;SDS011;40985;53.180;5.800;2023-06-19T11:33:15;12.20;;;11.05;;
55090;SDS011;40985;53.180;5.800;2023-06-19T11:35:41;14.98;;;12.32;;
55090;SDS011;40985;53.180;5.800;2023-06-19T11:38:16;15.55;;;12.27;;
55090;SDS011;40985;53.180;5.800;2023-06-19T11:40:42;11.23;;;10.02;;
55090;SDS011;40985;53.180;5.800;2023-06-19T11:43:08;12.20;;;10.13;;
55090;SDS011;40985;53.180;5.800;2023-06-19T11:45:44;10.77;;;9.45;;
55090;SDS011;40985;53.180;5.800;2023-06-19T11:48:10;10.18;;;9.35;;
55090;SDS011;40985;53.180;5.800;2023-06-19T11:50:38;8.65;;;7.80;;
55090;SDS011;40985;53.180;5.800;2023-06-19T11:53:03;7.72;;;6.95;;
55090;SDS011;40985;53.180;5.800;2023-06-19T11:55:29;7.47;;;6.72;;
55090;SDS011;40985;53.180;5.800;2023-06-19T11:57:54;8.30;;;7.50;;
55090;SDS011;40985;53.180;5.800;2023-06-19T12:00:20;8.00;;;7.40;;
55090;SDS011;40985;53.180;5.800;2023-06-19T12:02:46;9.63;;;8.70;;
55090;SDS011;40985;53.180;5.800;2023-06-19T12:05:12;8.32;;;7.50;;
55090;SDS011;40985;53.180;5.800;2023-06-19T12:07:39;6.80;;;6.30;;
55090;SDS011;40985;53.180;5.800;2023-06-19T12:10:05;7.95;;;7.25;;
55090;SDS011;40985;53.180;5.800;2023-06-19T12:12:35;6.30;;;5.63;;
55090;SDS011;40985;53.180;5.800;2023-06-19T12:15:03;7.05;;;6.25;;
55090;SDS011;40985;53.180;5.800;2023-06-19T12:17:30;6.72;;;6.13;;
55090;SDS011;40985;53.180;5.800;2023-06-19T12:19:56;8.15;;;6.85;;
55090;SDS011;40985;53.180;5.800;2023-06-19T12:22:22;7.63;;;6.88;;
55090;SDS011;40985;53.180;5.800;2023-06-19T12:24:48;10.20;;;7.15;;
55090;SDS011;40985;53.180;5.800;2023-06-19T12:27:13;8.45;;;7.65;;
55090;SDS011;40985;53.180;5.800;2023-06-19T12:29:39;7.60;;;6.10;;
55090;SDS011;40985;53.180;5.800;2023-06-19T12:32:05;7.15;;;6.38;;
55090;SDS011;40985;53.180;5.800;2023-06-19T12:34:31;8.38;;;7.28;;
55090;SDS011;40985;53.180;5.800;2023-06-19T12:36:56;7.47;;;6.88;;
55090;SDS011;40985;53.180;5.800;2023-06-19T12:39:22;8.82;;;7.25;;
55090;SDS011;40985;53.180;5.800;2023-06-19T12:41:48;6.88;;;6.28;;
55090;SDS011;40985;53.180;5.800;2023-06-19T12:44:14;7.85;;;6.90;;
55090;SDS011;40985;53.180;5.800;2023-06-19T12:46:39;8.57;;;5.72;;
55090;SDS011;40985;53.180;5.800;2023-06-19T12:49:05;7.88;;;6.55;;
55090;SDS011;40985;53.180;5.800;2023-06-19T12:51:31;5.60;;;5.20;;
55090;SDS011;40985;53.180;5.800;2023-06-19T12:53:56;7.57;;;6.97;;
55090;SDS011;40985;53.180;5.800;2023-06-19T12:56:22;6.80;;;5.82;;
55090;SDS011;40985;53.180;5.800;2023-06-19T12:58:48;6.40;;;5.80;;
55090;SDS011;40985;53.180;5.800;2023-06-19T13:01:13;7.68;;;6.30;;
55090;SDS011;40985;53.180;5.800;2023-06-19T13:03:39;7.35;;;5.03;;
55090;SDS011;40985;53.180;5.800;2023-06-19T13:06:05;6.03;;;5.40;;
55090;SDS011;40985;53.180;5.800;2023-06-19T13:08:30;12.10;;;7.22;;
55090;SDS011;40985;53.180;5.800;2023-06-19T13:10:56;8.00;;;6.75;;
55090;SDS011;40985;53.180;5.800;2023-06-19T13:13:22;10.38;;;6.28;;
55090;SDS011;40985;53.180;5.800;2023-06-19T13:15:47;8.65;;;7.68;;
55090;SDS011;40985;53.180;5.800;2023-06-19T13:18:13;8.88;;;7.90;;
55090;SDS011;40985;53.180;5.800;2023-06-19T13:20:39;8.25;;;7.40;;
55090;SDS011;40985;53.180;5.800;2023-06-19T13:23:04;12.18;;;8.73;;
55090;SDS011;40985;53.180;5.800;2023-06-19T13:25:31;7.10;;;6.07;;
55090;SDS011;40985;53.180;5.800;2023-06-19T13:27:57;4.60;;;4.20;;
55090;SDS011;40985;53.180;5.800;2023-06-19T13:30:23;8.95;;;5.68;;
55090;SDS011;40985;53.180;5.800;2023-06-19T13:32:49;9.82;;;6.10;;
55090;SDS011;40985;53.180;5.800;2023-06-19T13:35:14;7.30;;;6.40;;
55090;SDS011;40985;53.180;5.800;2023-06-19T13:37:40;5.60;;;5.03;;
55090;SDS011;40985;53.180;5.800;2023-06-19T13:40:06;4.95;;;4.45;;
55090;SDS011;40985;53.180;5.800;2023-06-19T13:42:32;5.57;;;4.72;;
55090;SDS011;40985;53.180;5.800;2023-06-19T13:45:00;6.30;;;4.70;;
55090;SDS011;40985;53.180;5.800;2023-06-19T13:47:27;5.72;;;5.15;;
55090;SDS011;40985;53.180;5.800;2023-06-19T13:49:53;6.78;;;5.88;;
55090;SDS011;40985;53.180;5.800;2023-06-19T13:52:18;6.88;;;5.50;;
55090;SDS011;40985;53.180;5.800;2023-06-19T13:54:45;8.70;;;5.00;;
55090;SDS011;40985;53.180;5.800;2023-06-19T13:57:11;10.02;;;5.43;;
55090;SDS011;40985;53.180;5.800;2023-06-19T13:59:36;7.93;;;4.72;;
55090;SDS011;40985;53.180;5.800;2023-06-19T14:02:02;8.95;;;5.30;;
55090;SDS011;40985;53.180;5.800;2023-06-19T14:04:28;5.88;;;4.10;;
55090;SDS011;40985;53.180;5.800;2023-06-19T14:06:53;6.75;;;4.07;;
55090;SDS011;40985;53.180;5.800;2023-06-19T14:09:20;4.63;;;3.67;;
55090;SDS011;40985;53.180;5.800;2023-06-19T14:11:46;4.70;;;3.95;;
55090;SDS011;40985;53.180;5.800;2023-06-19T14:14:11;3.22;;;3.03;;
55090;SDS011;40985;53.180;5.800;2023-06-19T14:16:37;5.28;;;4.70;;
55090;SDS011;40985;53.180;5.800;2023-06-19T14:19:03;4.72;;;3.53;;
55090;SDS011;40985;53.180;5.800;2023-06-19T14:21:28;7.03;;;4.20;;
55090;SDS011;40985;53.180;5.800;2023-06-19T14:23:54;5.32;;;3.53;;
55090;SDS011;40985;53.180;5.800;2023-06-19T14:26:20;3.92;;;3.42;;
55090;SDS011;40985;53.180;5.800;2023-06-19T14:28:46;5.70;;;5.10;;
55090;SDS011;40985;53.180;5.800;2023-06-19T14:31:11;4.80;;;4.22;;
55090;SDS011;40985;53.180;5.800;2023-06-19T14:33:37;5.18;;;4.28;;
55090;SDS011;40985;53.180;5.800;2023-06-19T14:36:03;5.97;;;4.30;;
55090;SDS011;40985;53.180;5.800;2023-06-19T14:38:29;5.85;;;3.67;;
55090;SDS011;40985;53.180;5.800;2023-06-19T14:40:59;6.60;;;4.22;;
55090;SDS011;40985;53.180;5.800;2023-06-19T14:43:26;6.78;;;5.30;;
55090;SDS011;40985;53.180;5.800;2023-06-19T14:45:52;6.47;;;3.97;;
55090;SDS011;40985;53.180;5.800;2023-06-19T14:48:18;4.82;;;3.63;;